sensor_id;sensor_type;location;lat;lon;timestamp;pressure;altitude;pressure_sealevel;temperature;humidity
41686;BME280;27370;42.764;23.432;2023-02-18T00:01:36;96353.28;;;-2.06;100.00
41686;BME280;27370;42.764;23.432;2023-02-18T00:04:02;96355.25;;;-1.81;100.00
41686;BME280;27370;42.764;23.432;2023-02-18T00:06:32;96344.81;;;-1.77;100.00
41686;BME280;27370;42.764;23.432;2023-02-18T00:08:59;96346.31;;;-1.85;100.00
41686;BME280;27370;42.764;23.432;2023-02-18T00:11:27;96345.53;;;-1.86;100.00
41686;BME280;27370;42.764;23.432;2023-02-18T00:13:56;96344.59;;;-1.90;100.00
41686;BME280;27370;42.764;23.432;2023-02-18T00:16:23;96335.22;;;-1.96;100.00
41686;BME280;27370;42.764;23.432;2023-02-18T00:18:49;96340.94;;;-2.11;100.00
41686;BME280;27370;42.764;23.432;2023-02-18T00:21:15;96331.88;;;-2.19;100.00
41686;BME280;27370;42.764;23.432;2023-02-18T00:23:40;96325.09;;;-2.33;100.00
41686;BME280;27370;42.764;23.432;2023-02-18T00:26:16;96307.09;;;-2.05;100.00
41686;BME280;27370;42.764;23.432;2023-02-18T00:28:42;96294.69;;;-2.27;100.00
41686;BME280;27370;42.764;23.432;2023-02-18T00:31:14;96314.69;;;-2.52;100.00
41686;BME280;27370;42.764;23.432;2023-02-18T00:33:40;96315.06;;;-2.45;100.00
41686;BME280;27370;42.764;23.432;2023-02-18T00:36:09;96307.94;;;-2.27;100.00
41686;BME280;27370;42.764;23.432;2023-02-18T00:38:35;96307.38;;;-2.16;100.00
41686;BME280;27370;42.764;23.432;2023-02-18T00:41:01;96318.25;;;-2.57;100.00
41686;BME280;27370;42.764;23.432;2023-02-18T00:43:27;96299.53;;;-2.60;100.00
41686;BME280;27370;42.764;23.432;2023-02-18T00:45:53;96310.00;;;-2.55;100.00
41686;BME280;27370;42.764;23.432;2023-02-18T00:48:19;96302.34;;;-2.57;100.00
41686;BME280;27370;42.764;23.432;2023-02-18T00:50:45;96308.28;;;-2.60;100.00
41686;BME280;27370;42.764;23.432;2023-02-18T00:53:11;96296.41;;;-2.62;100.00
41686;BME280;27370;42.764;23.432;2023-02-18T00:55:42;96301.69;;;-2.71;100.00
41686;BME280;27370;42.764;23.432;2023-02-18T00:58:09;96308.75;;;-2.89;100.00
41686;BME280;27370;42.764;23.432;2023-02-18T01:00:36;96302.66;;;-2.89;100.00
41686;BME280;27370;42.764;23.432;2023-02-18T01:03:02;96306.91;;;-2.80;100.00
41686;BME280;27370;42.764;23.432;2023-02-18T01:05:28;96295.72;;;-2.99;100.00
41686;BME280;27370;42.764;23.432;2023-02-18T01:07:53;96297.91;;;-2.48;100.00
41686;BME280;27370;42.764;23.432;2023-02-18T01:10:20;96296.84;;;-2.29;100.00
41686;BME280;27370;42.764;23.432;2023-02-18T01:12:46;96282.81;;;-2.30;100.00
41686;BME280;27370;42.764;23.432;2023-02-18T01:15:14;96283.75;;;-2.34;100.00
41686;BME280;27370;42.764;23.432;2023-02-18T01:17:40;96288.75;;;-2.33;100.00
41686;BME280;27370;42.764;23.432;2023-02-18T01:20:06;96282.16;;;-2.44;100.00
41686;BME280;27370;42.764;23.432;2023-02-18T01:22:33;96285.19;;;-2.59;100.00
41686;BME280;27370;42.764;23.432;2023-02-18T01:24:59;96278.03;;;-2.59;100.00
41686;BME280;27370;42.764;23.432;2023-02-18T01:27:25;96282.88;;;-2.52;100.00
41686;BME280;27370;42.764;23.432;2023-02-18T01:29:50;96276.69;;;-2.48;100.00
41686;BME280;27370;42.764;23.432;2023-02-18T01:32:16;96275.41;;;-2.81;100.00
41686;BME280;27370;42.764;23.432;2023-02-18T01:34:41;96288.91;;;-2.69;100.00
41686;BME280;27370;42.764;23.432;2023-02-18T01:37:07;96291.50;;;-2.78;100.00
41686;BME280;27370;42.764;23.432;2023-02-18T01:39:34;96286.03;;;-2.81;100.00
41686;BME280;27370;42.764;23.432;2023-02-18T01:42:00;96289.69;;;-2.68;100.00
41686;BME280;27370;42.764;23.432;2023-02-18T01:44:27;96298.41;;;-2.68;100.00
41686;BME280;27370;42.764;23.432;2023-02-18T01:46:53;96278.88;;;-2.72;100.00
41686;BME280;27370;42.764;23.432;2023-02-18T01:49:24;96290.09;;;-2.75;100.00
41686;BME280;27370;42.764;23.432;2023-02-18T01:51:56;96292.50;;;-2.65;100.00
41686;BME280;27370;42.764;23.432;2023-02-18T01:54:29;96292.88;;;-2.80;100.00
41686;BME280;27370;42.764;23.432;2023-02-18T01:57:15;96299.03;;;-2.71;100.00
41686;BME280;27370;42.764;23.432;2023-02-18T01:59:58;96295.69;;;-2.77;100.00
41686;BME280;27370;42.764;23.432;2023-02-18T02:02:26;96286.94;;;-3.08;100.00
41686;BME280;27370;42.764;23.432;2023-02-18T02:04:53;96289.66;;;-2.99;100.00
41686;BME280;27370;42.764;23.432;2023-02-18T02:07:21;96289.59;;;-3.08;100.00
41686;BME280;27370;42.764;23.432;2023-02-18T02:09:49;96292.25;;;-3.08;100.00
41686;BME280;27370;42.764;23.432;2023-02-18T02:15:20;96308.00;;;-3.25;100.00
41686;BME280;27370;42.764;23.432;2023-02-18T02:34:41;96293.25;;;-2.95;100.00
41686;BME280;27370;42.764;23.432;2023-02-18T02:37:43;96293.50;;;-2.83;100.00
41686;BME280;27370;42.764;23.432;2023-02-18T02:40:21;96289.31;;;-2.75;100.00
41686;BME280;27370;42.764;23.432;2023-02-18T02:48:56;96297.03;;;-2.65;100.00
41686;BME280;27370;42.764;23.432;2023-02-18T02:51:26;96301.06;;;-2.68;100.00
41686;BME280;27370;42.764;23.432;2023-02-18T02:54:08;96306.31;;;-2.99;100.00
41686;BME280;27370;42.764;23.432;2023-02-18T02:56:34;96302.88;;;-2.99;100.00
41686;BME280;27370;42.764;23.432;2023-02-18T02:59:04;96296.50;;;-2.98;100.00
41686;BME280;27370;42.764;23.432;2023-02-18T03:12:35;96291.91;;;-2.62;100.00
41686;BME280;27370;42.764;23.432;2023-02-18T03:17:36;96301.91;;;-2.81;100.00
41686;BME280;27370;42.764;23.432;2023-02-18T03:20:09;96292.22;;;-2.55;100.00
41686;BME280;27370;42.764;23.432;2023-02-18T03:22:45;96307.56;;;-2.74;100.00
41686;BME280;27370;42.764;23.432;2023-02-18T03:25:13;96296.19;;;-2.74;100.00
41686;BME280;27370;42.764;23.432;2023-02-18T03:30:13;96313.91;;;-2.84;100.00
41686;BME280;27370;42.764;23.432;2023-02-18T03:32:40;96308.94;;;-2.77;100.00
41686;BME280;27370;42.764;23.432;2023-02-18T03:35:10;96322.47;;;-2.87;100.00
41686;BME280;27370;42.764;23.432;2023-02-18T03:37:41;96317.38;;;-2.74;100.00
41686;BME280;27370;42.764;23.432;2023-02-18T03:40:10;96315.72;;;-2.93;100.00
41686;BME280;27370;42.764;23.432;2023-02-18T03:42:36;96317.31;;;-2.92;100.00
41686;BME280;27370;42.764;23.432;2023-02-18T03:45:02;96313.38;;;-3.17;100.00
41686;BME280;27370;42.764;23.432;2023-02-18T03:47:28;96321.38;;;-3.08;100.00
41686;BME280;27370;42.764;23.432;2023-02-18T03:49:53;96324.38;;;-3.01;100.00
41686;BME280;27370;42.764;23.432;2023-02-18T03:52:19;96322.50;;;-3.23;100.00
41686;BME280;27370;42.764;23.432;2023-02-18T03:54:45;96326.50;;;-3.12;100.00
41686;BME280;27370;42.764;23.432;2023-02-18T03:57:10;96319.94;;;-2.92;100.00
41686;BME280;27370;42.764;23.432;2023-02-18T03:59:36;96318.97;;;-2.96;100.00
41686;BME280;27370;42.764;23.432;2023-02-18T04:02:01;96315.72;;;-2.93;100.00
41686;BME280;27370;42.764;23.432;2023-02-18T04:04:27;96334.97;;;-2.79;100.00
41686;BME280;27370;42.764;23.432;2023-02-18T04:06:53;96329.69;;;-2.79;100.00
41686;BME280;27370;42.764;23.432;2023-02-18T04:09:18;96342.88;;;-2.65;100.00
41686;BME280;27370;42.764;23.432;2023-02-18T04:11:44;96345.09;;;-2.58;100.00
41686;BME280;27370;42.764;23.432;2023-02-18T04:14:12;96326.97;;;-2.65;100.00
41686;BME280;27370;42.764;23.432;2023-02-18T04:16:38;96339.53;;;-2.48;100.00
41686;BME280;27370;42.764;23.432;2023-02-18T04:19:04;96313.00;;;-2.79;100.00
41686;BME280;27370;42.764;23.432;2023-02-18T04:21:30;96326.25;;;-2.79;100.00
41686;BME280;27370;42.764;23.432;2023-02-18T04:23:55;96333.66;;;-2.90;100.00
41686;BME280;27370;42.764;23.432;2023-02-18T04:26:21;96332.41;;;-2.92;100.00
41686;BME280;27370;42.764;23.432;2023-02-18T04:28:47;96336.97;;;-2.62;100.00
41686;BME280;27370;42.764;23.432;2023-02-18T04:31:12;96320.53;;;-2.95;100.00
41686;BME280;27370;42.764;23.432;2023-02-18T04:33:38;96333.78;;;-2.95;100.00
41686;BME280;27370;42.764;23.432;2023-02-18T04:36:03;96325.13;;;-2.87;100.00
41686;BME280;27370;42.764;23.432;2023-02-18T04:38:29;96330.06;;;-2.94;100.00
41686;BME280;27370;42.764;23.432;2023-02-18T04:40:54;96330.53;;;-3.14;100.00
41686;BME280;27370;42.764;23.432;2023-02-18T04:43:20;96327.59;;;-3.13;100.00
41686;BME280;27370;42.764;23.432;2023-02-18T04:45:45;96315.31;;;-2.86;100.00
41686;BME280;27370;42.764;23.432;2023-02-18T04:48:11;96326.84;;;-2.82;100.00
41686;BME280;27370;42.764;23.432;2023-02-18T04:50:36;96337.75;;;-2.84;100.00
41686;BME280;27370;42.764;23.432;2023-02-18T04:53:02;96332.50;;;-2.75;100.00
41686;BME280;27370;42.764;23.432;2023-02-18T04:55:27;96319.97;;;-2.61;100.00
41686;BME280;27370;42.764;23.432;2023-02-18T04:57:53;96315.91;;;-2.58;100.00
41686;BME280;27370;42.764;23.432;2023-02-18T05:00:19;96319.91;;;-2.38;100.00
41686;BME280;27370;42.764;23.432;2023-02-18T05:02:45;96316.81;;;-2.32;100.00
41686;BME280;27370;42.764;23.432;2023-02-18T05:05:12;96310.25;;;-2.34;100.00
41686;BME280;27370;42.764;23.432;2023-02-18T05:07:37;96309.09;;;-2.20;100.00
41686;BME280;27370;42.764;23.432;2023-02-18T05:10:03;96275.47;;;-2.33;100.00
41686;BME280;27370;42.764;23.432;2023-02-18T05:12:29;96277.19;;;-2.28;100.00
41686;BME280;27370;42.764;23.432;2023-02-18T05:14:54;96265.50;;;-2.27;100.00
41686;BME280;27370;42.764;23.432;2023-02-18T05:17:20;96287.38;;;-2.22;100.00
41686;BME280;27370;42.764;23.432;2023-02-18T05:19:45;96287.69;;;-2.23;100.00
41686;BME280;27370;42.764;23.432;2023-02-18T05:22:11;96319.69;;;-2.20;100.00
41686;BME280;27370;42.764;23.432;2023-02-18T05:24:36;96317.97;;;-2.16;100.00
41686;BME280;27370;42.764;23.432;2023-02-18T05:27:02;96306.59;;;-2.16;100.00
41686;BME280;27370;42.764;23.432;2023-02-18T05:29:27;96306.69;;;-2.30;100.00
41686;BME280;27370;42.764;23.432;2023-02-18T05:31:53;96323.44;;;-2.21;100.00
41686;BME280;27370;42.764;23.432;2023-02-18T05:34:18;96306.53;;;-2.33;100.00
41686;BME280;27370;42.764;23.432;2023-02-18T05:36:44;96313.94;;;-2.13;100.00
41686;BME280;27370;42.764;23.432;2023-02-18T05:39:09;96301.22;;;-2.33;100.00
41686;BME280;27370;42.764;23.432;2023-02-18T05:41:35;96328.91;;;-2.17;100.00
41686;BME280;27370;42.764;23.432;2023-02-18T05:44:00;96310.66;;;-2.19;100.00
41686;BME280;27370;42.764;23.432;2023-02-18T05:46:44;96322.19;;;-2.14;100.00
41686;BME280;27370;42.764;23.432;2023-02-18T05:49:10;96332.66;;;-2.09;100.00
41686;BME280;27370;42.764;23.432;2023-02-18T05:51:35;96327.38;;;-2.09;100.00
41686;BME280;27370;42.764;23.432;2023-02-18T05:54:01;96328.66;;;-1.98;100.00
41686;BME280;27370;42.764;23.432;2023-02-18T05:56:26;96327.44;;;-1.83;100.00
41686;BME280;27370;42.764;23.432;2023-02-18T05:58:52;96335.13;;;-1.73;100.00
41686;BME280;27370;42.764;23.432;2023-02-18T06:01:17;96342.53;;;-1.44;100.00
41686;BME280;27370;42.764;23.432;2023-02-18T06:03:43;96346.72;;;-1.43;100.00
41686;BME280;27370;42.764;23.432;2023-02-18T06:06:08;96350.34;;;-1.31;100.00
41686;BME280;27370;42.764;23.432;2023-02-18T06:08:34;96332.38;;;-1.34;100.00
41686;BME280;27370;42.764;23.432;2023-02-18T06:10:59;96330.19;;;-1.23;100.00
41686;BME280;27370;42.764;23.432;2023-02-18T06:13:25;96332.72;;;-1.09;100.00
41686;BME280;27370;42.764;23.432;2023-02-18T06:15:51;96332.06;;;-0.80;100.00
41686;BME280;27370;42.764;23.432;2023-02-18T06:18:17;96341.09;;;-0.64;100.00
41686;BME280;27370;42.764;23.432;2023-02-18T06:20:42;96325.25;;;-0.52;100.00
41686;BME280;27370;42.764;23.432;2023-02-18T06:23:08;96322.44;;;-0.47;100.00
41686;BME280;27370;42.764;23.432;2023-02-18T06:25:33;96329.13;;;-0.32;100.00
41686;BME280;27370;42.764;23.432;2023-02-18T06:27:59;96313.13;;;-0.23;100.00
41686;BME280;27370;42.764;23.432;2023-02-18T06:30:24;96332.94;;;-0.04;100.00
41686;BME280;27370;42.764;23.432;2023-02-18T06:32:50;96332.66;;;0.27;100.00
41686;BME280;27370;42.764;23.432;2023-02-18T06:35:16;96329.38;;;0.51;100.00
41686;BME280;27370;42.764;23.432;2023-02-18T06:37:41;96321.88;;;0.66;100.00
41686;BME280;27370;42.764;23.432;2023-02-18T06:40:07;96326.66;;;0.81;100.00
41686;BME280;27370;42.764;23.432;2023-02-18T06:42:33;96320.78;;;0.87;100.00
41686;BME280;27370;42.764;23.432;2023-02-18T06:44:58;96329.75;;;1.04;100.00
41686;BME280;27370;42.764;23.432;2023-02-18T06:47:24;96333.75;;;1.31;100.00
41686;BME280;27370;42.764;23.432;2023-02-18T06:49:49;96319.69;;;1.42;100.00
41686;BME280;27370;42.764;23.432;2023-02-18T06:52:15;96319.59;;;1.51;100.00
41686;BME280;27370;42.764;23.432;2023-02-18T06:54:40;96321.31;;;1.80;100.00
41686;BME280;27370;42.764;23.432;2023-02-18T06:57:06;96331.13;;;1.88;100.00
41686;BME280;27370;42.764;23.432;2023-02-18T06:59:32;96327.91;;;2.07;100.00
41686;BME280;27370;42.764;23.432;2023-02-18T07:01:57;96331.03;;;2.33;100.00
41686;BME280;27370;42.764;23.432;2023-02-18T07:04:23;96340.34;;;2.64;100.00
41686;BME280;27370;42.764;23.432;2023-02-18T07:06:48;96313.84;;;2.46;100.00
41686;BME280;27370;42.764;23.432;2023-02-18T07:09:14;96320.13;;;2.51;100.00
41686;BME280;27370;42.764;23.432;2023-02-18T07:11:39;96318.38;;;2.70;100.00
41686;BME280;27370;42.764;23.432;2023-02-18T07:14:05;96319.97;;;2.47;100.00
41686;BME280;27370;42.764;23.432;2023-02-18T07:16:30;96315.63;;;2.67;100.00
41686;BME280;27370;42.764;23.432;2023-02-18T07:18:55;96299.34;;;2.72;100.00
41686;BME280;27370;42.764;23.432;2023-02-18T07:21:21;96307.34;;;2.84;100.00
41686;BME280;27370;42.764;23.432;2023-02-18T07:23:46;96316.47;;;3.23;100.00
41686;BME280;27370;42.764;23.432;2023-02-18T07:26:13;96320.75;;;3.56;100.00
41686;BME280;27370;42.764;23.432;2023-02-18T07:28:39;96315.06;;;3.57;100.00
41686;BME280;27370;42.764;23.432;2023-02-18T07:31:06;96318.19;;;4.07;100.00
41686;BME280;27370;42.764;23.432;2023-02-18T07:33:32;96306.47;;;3.95;100.00
41686;BME280;27370;42.764;23.432;2023-02-18T07:35:59;96319.25;;;4.02;100.00
41686;BME280;27370;42.764;23.432;2023-02-18T07:38:26;96305.00;;;4.14;100.00
41686;BME280;27370;42.764;23.432;2023-02-18T07:40:52;96287.72;;;4.11;100.00
41686;BME280;27370;42.764;23.432;2023-02-18T07:43:18;96302.63;;;4.28;100.00
41686;BME280;27370;42.764;23.432;2023-02-18T07:45:44;96308.94;;;4.36;100.00
41686;BME280;27370;42.764;23.432;2023-02-18T07:48:10;96308.03;;;4.47;100.00
41686;BME280;27370;42.764;23.432;2023-02-18T07:50:39;96307.94;;;4.59;100.00
41686;BME280;27370;42.764;23.432;2023-02-18T07:53:05;96304.91;;;4.61;100.00
41686;BME280;27370;42.764;23.432;2023-02-18T07:55:31;96308.94;;;4.71;100.00
41686;BME280;27370;42.764;23.432;2023-02-18T07:58:22;96306.59;;;5.04;100.00
41686;BME280;27370;42.764;23.432;2023-02-18T08:00:48;96311.81;;;5.36;100.00
41686;BME280;27370;42.764;23.432;2023-02-18T08:03:18;96313.44;;;5.82;100.00
41686;BME280;27370;42.764;23.432;2023-02-18T08:05:43;96309.06;;;5.94;100.00
41686;BME280;27370;42.764;23.432;2023-02-18T08:08:12;96304.50;;;6.21;100.00
41686;BME280;27370;42.764;23.432;2023-02-18T08:10:38;96297.88;;;6.41;100.00
41686;BME280;27370;42.764;23.432;2023-02-18T08:13:03;96277.41;;;6.59;100.00
41686;BME280;27370;42.764;23.432;2023-02-18T08:15:29;96295.75;;;6.80;100.00
41686;BME280;27370;42.764;23.432;2023-02-18T08:17:55;96316.38;;;6.99;100.00
41686;BME280;27370;42.764;23.432;2023-02-18T08:20:20;96308.44;;;7.10;100.00
41686;BME280;27370;42.764;23.432;2023-02-18T08:22:46;96306.56;;;7.14;100.00
41686;BME280;27370;42.764;23.432;2023-02-18T08:25:11;96311.28;;;7.57;100.00
41686;BME280;27370;42.764;23.432;2023-02-18T08:27:37;96295.13;;;7.57;100.00
41686;BME280;27370;42.764;23.432;2023-02-18T08:30:03;96303.69;;;7.29;100.00
41686;BME280;27370;42.764;23.432;2023-02-18T08:32:28;96301.03;;;7.33;100.00
41686;BME280;27370;42.764;23.432;2023-02-18T08:34:54;96294.44;;;7.30;100.00
41686;BME280;27370;42.764;23.432;2023-02-18T08:37:20;96287.28;;;7.45;100.00
41686;BME280;27370;42.764;23.432;2023-02-18T08:39:48;96303.44;;;7.45;100.00
41686;BME280;27370;42.764;23.432;2023-02-18T08:42:15;96298.13;;;7.49;100.00
41686;BME280;27370;42.764;23.432;2023-02-18T08:44:40;96295.22;;;7.68;100.00
41686;BME280;27370;42.764;23.432;2023-02-18T08:47:06;96281.88;;;7.82;100.00
41686;BME280;27370;42.764;23.432;2023-02-18T08:49:31;96293.56;;;7.93;100.00
41686;BME280;27370;42.764;23.432;2023-02-18T08:51:57;96301.75;;;8.08;100.00
41686;BME280;27370;42.764;23.432;2023-02-18T08:54:22;96301.50;;;8.20;100.00
41686;BME280;27370;42.764;23.432;2023-02-18T08:56:48;96297.13;;;8.52;96.79
41686;BME280;27370;42.764;23.432;2023-02-18T08:59:13;96276.56;;;8.37;100.00
41686;BME280;27370;42.764;23.432;2023-02-18T09:01:39;96279.00;;;8.53;96.73
41686;BME280;27370;42.764;23.432;2023-02-18T09:04:04;96280.25;;;8.70;93.56
41686;BME280;27370;42.764;23.432;2023-02-18T09:06:30;96267.63;;;8.84;90.87
41686;BME280;27370;42.764;23.432;2023-02-18T09:08:55;96268.50;;;9.10;86.18
41686;BME280;27370;42.764;23.432;2023-02-18T09:11:21;96284.81;;;9.31;81.09
41686;BME280;27370;42.764;23.432;2023-02-18T09:13:46;96284.09;;;9.56;81.56
41686;BME280;27370;42.764;23.432;2023-02-18T09:16:15;96276.38;;;9.68;81.41
41686;BME280;27370;42.764;23.432;2023-02-18T09:18:44;96280.69;;;9.76;81.11
41686;BME280;27370;42.764;23.432;2023-02-18T09:21:12;96269.50;;;9.96;77.49
41686;BME280;27370;42.764;23.432;2023-02-18T09:23:38;96275.31;;;10.23;75.01
41686;BME280;27370;42.764;23.432;2023-02-18T09:26:06;96273.34;;;10.59;73.39
41686;BME280;27370;42.764;23.432;2023-02-18T09:28:33;96275.63;;;10.78;70.91
41686;BME280;27370;42.764;23.432;2023-02-18T09:31:12;96259.28;;;11.10;68.09
41686;BME280;27370;42.764;23.432;2023-02-18T09:33:42;96244.34;;;11.57;65.39
41686;BME280;27370;42.764;23.432;2023-02-18T09:36:09;96240.56;;;12.03;56.86
41686;BME280;27370;42.764;23.432;2023-02-18T09:38:35;96228.22;;;11.95;54.86
41686;BME280;27370;42.764;23.432;2023-02-18T09:41:04;96230.94;;;12.40;52.55
41686;BME280;27370;42.764;23.432;2023-02-18T09:43:32;96239.88;;;12.37;53.26
41686;BME280;27370;42.764;23.432;2023-02-18T09:46:00;96237.84;;;12.48;51.57
41686;BME280;27370;42.764;23.432;2023-02-18T09:48:29;96219.22;;;12.50;50.54
41686;BME280;27370;42.764;23.432;2023-02-18T09:50:58;96229.03;;;12.37;48.48
41686;BME280;27370;42.764;23.432;2023-02-18T09:53:24;96224.47;;;11.78;50.10
41686;BME280;27370;42.764;23.432;2023-02-18T09:55:51;96222.03;;;11.25;52.03
41686;BME280;27370;42.764;23.432;2023-02-18T09:58:28;96222.38;;;11.38;52.90
41686;BME280;27370;42.764;23.432;2023-02-18T10:03:28;96211.78;;;11.57;50.03
41686;BME280;27370;42.764;23.432;2023-02-18T10:05:57;96214.41;;;11.72;49.74
41686;BME280;27370;42.764;23.432;2023-02-18T10:08:28;96207.00;;;11.76;48.50
41686;BME280;27370;42.764;23.432;2023-02-18T10:10:57;96213.84;;;11.98;46.42
41686;BME280;27370;42.764;23.432;2023-02-18T10:13:31;96217.50;;;11.70;48.68
41686;BME280;27370;42.764;23.432;2023-02-18T10:15:59;96201.47;;;11.93;50.18
41686;BME280;27370;42.764;23.432;2023-02-18T10:18:28;96209.53;;;12.49;46.88
41686;BME280;27370;42.764;23.432;2023-02-18T10:21:14;96198.00;;;12.34;45.64
41686;BME280;27370;42.764;23.432;2023-02-18T10:24:02;96192.19;;;12.36;47.67
41686;BME280;27370;42.764;23.432;2023-02-18T10:26:29;96196.25;;;12.54;47.51
41686;BME280;27370;42.764;23.432;2023-02-18T10:28:56;96195.78;;;12.63;47.40
41686;BME280;27370;42.764;23.432;2023-02-18T10:31:36;96189.41;;;12.39;46.78
41686;BME280;27370;42.764;23.432;2023-02-18T10:34:29;96198.13;;;12.23;46.62
41686;BME280;27370;42.764;23.432;2023-02-18T10:37:03;96191.09;;;12.64;46.93
41686;BME280;27370;42.764;23.432;2023-02-18T10:39:35;96180.44;;;13.10;46.11
41686;BME280;27370;42.764;23.432;2023-02-18T10:42:35;96177.66;;;13.48;42.55
41686;BME280;27370;42.764;23.432;2023-02-18T10:50:39;96160.19;;;14.82;41.49
41686;BME280;27370;42.764;23.432;2023-02-18T10:53:30;96172.91;;;14.89;39.04
41686;BME280;27370;42.764;23.432;2023-02-18T10:55:57;96164.38;;;14.47;38.89
41686;BME280;27370;42.764;23.432;2023-02-18T11:00:52;96153.94;;;14.42;42.35
41686;BME280;27370;42.764;23.432;2023-02-18T11:03:23;96150.38;;;14.45;41.77
41686;BME280;27370;42.764;23.432;2023-02-18T11:05:52;96143.53;;;14.37;41.94
41686;BME280;27370;42.764;23.432;2023-02-18T11:08:26;96139.03;;;14.50;42.32
41686;BME280;27370;42.764;23.432;2023-02-18T11:10:53;96129.59;;;14.55;39.69
41686;BME280;27370;42.764;23.432;2023-02-18T11:13:28;96125.75;;;14.09;40.85
41686;BME280;27370;42.764;23.432;2023-02-18T11:16:05;96122.13;;;14.35;43.88
41686;BME280;27370;42.764;23.432;2023-02-18T11:18:38;96119.31;;;14.82;41.99
41686;BME280;27370;42.764;23.432;2023-02-18T11:21:31;96109.91;;;15.03;39.61
41686;BME280;27370;42.764;23.432;2023-02-18T11:24:09;96103.47;;;14.93;39.14
41686;BME280;27370;42.764;23.432;2023-02-18T11:26:39;96104.13;;;15.01;41.65
41686;BME280;27370;42.764;23.432;2023-02-18T11:29:19;96094.19;;;15.43;39.23
41686;BME280;27370;42.764;23.432;2023-02-18T11:31:51;96093.00;;;15.44;40.18
41686;BME280;27370;42.764;23.432;2023-02-18T11:34:21;96079.09;;;15.55;38.45
41686;BME280;27370;42.764;23.432;2023-02-18T11:36:49;96085.13;;;15.30;40.31
41686;BME280;27370;42.764;23.432;2023-02-18T11:39:21;96084.88;;;15.57;40.04
41686;BME280;27370;42.764;23.432;2023-02-18T11:41:57;96086.09;;;15.56;40.84
41686;BME280;27370;42.764;23.432;2023-02-18T11:44:27;96087.28;;;15.55;39.46
41686;BME280;27370;42.764;23.432;2023-02-18T11:49:31;96091.59;;;15.04;40.95
41686;BME280;27370;42.764;23.432;2023-02-18T11:52:29;96086.56;;;15.02;41.15
41686;BME280;27370;42.764;23.432;2023-02-18T11:55:06;96070.13;;;15.22;41.32
41686;BME280;27370;42.764;23.432;2023-02-18T11:57:37;96051.34;;;15.08;41.73
41686;BME280;27370;42.764;23.432;2023-02-18T12:00:45;96059.97;;;15.39;42.15
41686;BME280;27370;42.764;23.432;2023-02-18T12:03:22;96048.16;;;15.45;41.61
41686;BME280;27370;42.764;23.432;2023-02-18T12:05:50;96051.38;;;15.24;41.71
41686;BME280;27370;42.764;23.432;2023-02-18T12:08:28;96052.13;;;15.08;42.68
41686;BME280;27370;42.764;23.432;2023-02-18T12:11:04;96039.53;;;15.30;44.02
41686;BME280;27370;42.764;23.432;2023-02-18T12:13:35;96032.69;;;15.55;44.26
41686;BME280;27370;42.764;23.432;2023-02-18T12:19:33;96032.94;;;15.12;44.28
41686;BME280;27370;42.764;23.432;2023-02-18T12:24:50;96025.53;;;15.12;43.57
41686;BME280;27370;42.764;23.432;2023-02-18T12:27:36;96010.94;;;14.86;42.82
41686;BME280;27370;42.764;23.432;2023-02-18T12:30:20;96010.34;;;14.79;45.73
41686;BME280;27370;42.764;23.432;2023-02-18T12:41:24;95989.72;;;15.43;42.90
41686;BME280;27370;42.764;23.432;2023-02-18T12:44:05;95987.00;;;15.43;42.19
41686;BME280;27370;42.764;23.432;2023-02-18T12:47:22;95981.69;;;15.52;42.00
41686;BME280;27370;42.764;23.432;2023-02-18T13:17:34;95976.91;;;16.01;40.18
41686;BME280;27370;42.764;23.432;2023-02-18T13:20:13;95969.88;;;15.87;38.93
41686;BME280;27370;42.764;23.432;2023-02-18T13:22:43;95972.88;;;15.77;39.48
41686;BME280;27370;42.764;23.432;2023-02-18T13:25:13;95979.88;;;15.78;40.36
41686;BME280;27370;42.764;23.432;2023-02-18T13:35:43;95978.66;;;15.17;41.65
41686;BME280;27370;42.764;23.432;2023-02-18T13:38:27;95979.78;;;15.20;40.81
41686;BME280;27370;42.764;23.432;2023-02-18T13:40:57;95979.09;;;14.99;43.00
41686;BME280;27370;42.764;23.432;2023-02-18T13:46:12;95968.94;;;15.00;41.94
41686;BME280;27370;42.764;23.432;2023-02-18T13:54:01;95961.56;;;14.64;43.20
41686;BME280;27370;42.764;23.432;2023-02-18T13:56:30;95961.59;;;14.81;42.27
41686;BME280;27370;42.764;23.432;2023-02-18T13:59:19;95956.28;;;14.57;42.79
41686;BME280;27370;42.764;23.432;2023-02-18T14:01:48;95963.16;;;14.46;42.88
41686;BME280;27370;42.764;23.432;2023-02-18T14:04:46;95959.66;;;14.45;44.47
41686;BME280;27370;42.764;23.432;2023-02-18T14:10:02;95952.91;;;14.33;42.88
41686;BME280;27370;42.764;23.432;2023-02-18T14:14:57;95954.19;;;14.09;45.36
41686;BME280;27370;42.764;23.432;2023-02-18T14:20:25;95969.41;;;14.06;45.39
41686;BME280;27370;42.764;23.432;2023-02-18T14:22:52;95955.72;;;13.90;46.01
41686;BME280;27370;42.764;23.432;2023-02-18T14:25:36;95972.41;;;13.92;46.59
41686;BME280;27370;42.764;23.432;2023-02-18T14:31:22;95961.00;;;13.58;47.38
41686;BME280;27370;42.764;23.432;2023-02-18T14:39:34;95970.00;;;13.74;48.47
41686;BME280;27370;42.764;23.432;2023-02-18T14:50:12;95960.38;;;13.70;49.13
41686;BME280;27370;42.764;23.432;2023-02-18T14:52:42;95964.91;;;13.76;47.41
41686;BME280;27370;42.764;23.432;2023-02-18T14:55:22;95952.44;;;13.59;48.20
41686;BME280;27370;42.764;23.432;2023-02-18T14:57:51;95964.09;;;13.60;49.27
41686;BME280;27370;42.764;23.432;2023-02-18T15:00:24;95951.91;;;13.44;49.92
41686;BME280;27370;42.764;23.432;2023-02-18T15:02:52;95965.03;;;13.49;48.56
41686;BME280;27370;42.764;23.432;2023-02-18T15:05:23;95967.88;;;13.42;48.88
41686;BME280;27370;42.764;23.432;2023-02-18T15:07:57;95960.66;;;13.32;49.61
41686;BME280;27370;42.764;23.432;2023-02-18T15:11:13;95958.28;;;13.34;49.51
41686;BME280;27370;42.764;23.432;2023-02-18T15:13:18;95966.38;;;13.18;51.22
41686;BME280;27370;42.764;23.432;2023-02-18T15:15:48;95965.66;;;13.10;51.06